sensor_id;sensor_type;location;lat;lon;timestamp;P1;durP1;ratioP1;P2;durP2;ratioP2
22201;SDS011;11266;51.522;6.302;2023-04-28T00:00:08;7.07;;;4.15;;
22201;SDS011;11266;51.522;6.302;2023-04-28T00:00:55;6.97;;;4.30;;
22201;SDS011;11266;51.522;6.302;2023-04-28T00:01:41;9.98;;;4.90;;
22201;SDS011;11266;51.522;6.302;2023-04-28T00:02:27;8.00;;;4.93;;
22201;SDS011;11266;51.522;6.302;2023-04-28T00:03:13;6.75;;;4.38;;
22201;SDS011;11266;51.522;6.302;2023-04-28T00:03:59;7.63;;;4.45;;
22201;SDS011;11266;51.522;6.302;2023-04-28T00:04:45;6.70;;;3.97;;
22201;SDS011;11266;51.522;6.302;2023-04-28T00:05:31;6.60;;;4.18;;
22201;SDS011;11266;51.522;6.302;2023-04-28T00:06:17;7.30;;;4.35;;
22201;SDS011;11266;51.522;6.302;2023-04-28T00:07:03;7.65;;;5.10;;
22201;SDS011;11266;51.522;6.302;2023-04-28T00:07:49;7.07;;;4.55;;
22201;SDS011;11266;51.522;6.302;2023-04-28T00:08:35;8.68;;;4.72;;
22201;SDS011;11266;51.522;6.302;2023-04-28T00:09:21;7.05;;;5.07;;
22201;SDS011;11266;51.522;6.302;2023-04-28T00:10:07;8.27;;;4.38;;
22201;SDS011;11266;51.522;6.302;2023-04-28T00:10:53;11.05;;;5.07;;
22201;SDS011;11266;51.522;6.302;2023-04-28T00:11:39;6.70;;;5.18;;
22201;SDS011;11266;51.522;6.302;2023-04-28T00:12:25;7.13;;;4.40;;
22201;SDS011;11266;51.522;6.302;2023-04-28T00:13:10;7.05;;;4.20;;
22201;SDS011;11266;51.522;6.302;2023-04-28T00:13:56;5.25;;;3.90;;
22201;SDS011;11266;51.522;6.302;2023-04-28T00:14:42;6.72;;;3.83;;
22201;SDS011;11266;51.522;6.302;2023-04-28T00:15:28;6.57;;;4.60;;
22201;SDS011;11266;51.522;6.302;2023-04-28T00:16:14;5.32;;;3.95;;
22201;SDS011;11266;51.522;6.302;2023-04-28T00:16:59;6.82;;;4.63;;
22201;SDS011;11266;51.522;6.302;2023-04-28T00:17:47;11.48;;;4.38;;
22201;SDS011;11266;51.522;6.302;2023-04-28T00:18:33;7.70;;;4.75;;
22201;SDS011;11266;51.522;6.302;2023-04-28T00:19:19;6.88;;;4.65;;
22201;SDS011;11266;51.522;6.302;2023-04-28T00:20:05;5.97;;;4.45;;
22201;SDS011;11266;51.522;6.302;2023-04-28T00:20:51;6.20;;;4.28;;
22201;SDS011;11266;51.522;6.302;2023-04-28T00:21:37;6.07;;;3.53;;
22201;SDS011;11266;51.522;6.302;2023-04-28T00:22:23;7.20;;;4.57;;
22201;SDS011;11266;51.522;6.302;2023-04-28T00:23:09;6.97;;;4.47;;
22201;SDS011;11266;51.522;6.302;2023-04-28T00:23:55;7.60;;;4.38;;
22201;SDS011;11266;51.522;6.302;2023-04-28T00:24:40;10.00;;;4.72;;
22201;SDS011;11266;51.522;6.302;2023-04-28T00:25:26;6.43;;;4.57;;
22201;SDS011;11266;51.522;6.302;2023-04-28T00:26:12;7.38;;;4.88;;
22201;SDS011;11266;51.522;6.302;2023-04-28T00:26:58;6.20;;;4.40;;
22201;SDS011;11266;51.522;6.302;2023-04-28T00:27:44;6.97;;;4.63;;
22201;SDS011;11266;51.522;6.302;2023-04-28T00:28:30;11.77;;;4.78;;
22201;SDS011;11266;51.522;6.302;2023-04-28T00:29:15;7.22;;;5.00;;
22201;SDS011;11266;51.522;6.302;2023-04-28T00:30:01;7.38;;;4.75;;
22201;SDS011;11266;51.522;6.302;2023-04-28T00:30:48;7.85;;;4.40;;
22201;SDS011;11266;51.522;6.302;2023-04-28T00:31:50;6.78;;;4.75;;
22201;SDS011;11266;51.522;6.302;2023-04-28T00:32:35;6.65;;;4.32;;
22201;SDS011;11266;51.522;6.302;2023-04-28T00:33:21;6.47;;;4.65;;
22201;SDS011;11266;51.522;6.302;2023-04-28T00:34:07;6.15;;;4.07;;
22201;SDS011;11266;51.522;6.302;2023-04-28T00:34:53;7.97;;;4.40;;
22201;SDS011;11266;51.522;6.302;2023-04-28T00:35:39;6.45;;;4.05;;
22201;SDS011;11266;51.522;6.302;2023-04-28T00:36:26;6.00;;;4.28;;
22201;SDS011;11266;51.522;6.302;2023-04-28T00:37:16;6.50;;;4.45;;
22201;SDS011;11266;51.522;6.302;2023-04-28T00:38:01;8.20;;;4.53;;
22201;SDS011;11266;51.522;6.302;2023-04-28T00:38:47;10.98;;;5.53;;
22201;SDS011;11266;51.522;6.302;2023-04-28T00:39:33;7.35;;;4.55;;
22201;SDS011;11266;51.522;6.302;2023-04-28T00:40:19;7.25;;;5.25;;
22201;SDS011;11266;51.522;6.302;2023-04-28T00:41:05;8.07;;;4.60;;
22201;SDS011;11266;51.522;6.302;2023-04-28T00:41:51;7.45;;;4.55;;
22201;SDS011;11266;51.522;6.302;2023-04-28T00:42:37;9.75;;;5.85;;
22201;SDS011;11266;51.522;6.302;2023-04-28T00:43:23;8.88;;;5.30;;
22201;SDS011;11266;51.522;6.302;2023-04-28T00:44:09;8.05;;;5.10;;
22201;SDS011;11266;51.522;6.302;2023-04-28T00:44:54;8.52;;;5.57;;
22201;SDS011;11266;51.522;6.302;2023-04-28T00:45:40;8.77;;;5.28;;
22201;SDS011;11266;51.522;6.302;2023-04-28T00:46:27;7.25;;;4.95;;
22201;SDS011;11266;51.522;6.302;2023-04-28T00:47:16;6.65;;;4.78;;
22201;SDS011;11266;51.522;6.302;2023-04-28T00:48:03;9.20;;;4.40;;
22201;SDS011;11266;51.522;6.302;2023-04-28T00:48:49;6.55;;;4.70;;
22201;SDS011;11266;51.522;6.302;2023-04-28T00:49:35;8.15;;;4.43;;
22201;SDS011;11266;51.522;6.302;2023-04-28T00:50:22;5.95;;;4.43;;
22201;SDS011;11266;51.522;6.302;2023-04-28T00:51:09;6.18;;;4.50;;
22201;SDS011;11266;51.522;6.302;2023-04-28T00:51:55;6.07;;;4.72;;
22201;SDS011;11266;51.522;6.302;2023-04-28T00:52:42;7.00;;;4.43;;
22201;SDS011;11266;51.522;6.302;2023-04-28T00:53:28;6.53;;;4.50;;
22201;SDS011;11266;51.522;6.302;2023-04-28T00:54:15;6.10;;;4.55;;
22201;SDS011;11266;51.522;6.302;2023-04-28T00:55:01;8.25;;;5.20;;
22201;SDS011;11266;51.522;6.302;2023-04-28T00:55:48;9.02;;;5.15;;
22201;SDS011;11266;51.522;6.302;2023-04-28T00:56:37;9.05;;;5.53;;
22201;SDS011;11266;51.522;6.302;2023-04-28T00:57:23;8.95;;;5.20;;
22201;SDS011;11266;51.522;6.302;2023-04-28T00:58:08;9.85;;;5.32;;
22201;SDS011;11266;51.522;6.302;2023-04-28T00:58:54;7.15;;;4.90;;
22201;SDS011;11266;51.522;6.302;2023-04-28T00:59:40;10.35;;;5.88;;
22201;SDS011;11266;51.522;6.302;2023-04-28T01:00:26;7.40;;;5.30;;
22201;SDS011;11266;51.522;6.302;2023-04-28T01:01:12;9.57;;;5.57;;
22201;SDS011;11266;51.522;6.302;2023-04-28T01:01:58;10.35;;;4.85;;
22201;SDS011;11266;51.522;6.302;2023-04-28T01:02:44;11.98;;;5.68;;
22201;SDS011;11266;51.522;6.302;2023-04-28T01:03:32;10.38;;;5.43;;
22201;SDS011;11266;51.522;6.302;2023-04-28T01:04:19;8.27;;;4.88;;
22201;SDS011;11266;51.522;6.302;2023-04-28T01:05:05;7.65;;;5.63;;
22201;SDS011;11266;51.522;6.302;2023-04-28T01:05:52;10.90;;;5.18;;
22201;SDS011;11266;51.522;6.302;2023-04-28T01:06:38;10.43;;;5.13;;
22201;SDS011;11266;51.522;6.302;2023-04-28T01:07:25;8.48;;;5.22;;
22201;SDS011;11266;51.522;6.302;2023-04-28T01:08:11;8.18;;;5.40;;
22201;SDS011;11266;51.522;6.302;2023-04-28T01:08:57;7.22;;;5.43;;
22201;SDS011;11266;51.522;6.302;2023-04-28T01:09:42;8.65;;;5.57;;
22201;SDS011;11266;51.522;6.302;2023-04-28T01:10:29;8.82;;;5.45;;
22201;SDS011;11266;51.522;6.302;2023-04-28T01:11:15;7.90;;;5.68;;
22201;SDS011;11266;51.522;6.302;2023-04-28T01:12:01;11.60;;;6.18;;
22201;SDS011;11266;51.522;6.302;2023-04-28T01:12:47;8.32;;;5.40;;
22201;SDS011;11266;51.522;6.302;2023-04-28T01:13:33;7.47;;;5.32;;
22201;SDS011;11266;51.522;6.302;2023-04-28T01:14:18;9.10;;;5.55;;
22201;SDS011;11266;51.522;6.302;2023-04-28T01:15:04;7.88;;;5.60;;
22201;SDS011;11266;51.522;6.302;2023-04-28T01:15:51;8.02;;;5.65;;
22201;SDS011;11266;51.522;6.302;2023-04-28T01:16:39;9.55;;;4.88;;
22201;SDS011;11266;51.522;6.302;2023-04-28T01:17:26;7.57;;;5.30;;
22201;SDS011;11266;51.522;6.302;2023-04-28T01:18:11;7.20;;;5.40;;
22201;SDS011;11266;51.522;6.302;2023-04-28T01:18:57;7.18;;;5.35;;
22201;SDS011;11266;51.522;6.302;2023-04-28T01:19:45;6.90;;;5.10;;
22201;SDS011;11266;51.522;6.302;2023-04-28T01:20:30;8.88;;;5.18;;
22201;SDS011;11266;51.522;6.302;2023-04-28T01:21:25;7.07;;;5.25;;
22201;SDS011;11266;51.522;6.302;2023-04-28T01:22:16;10.70;;;4.97;;
22201;SDS011;11266;51.522;6.302;2023-04-28T01:23:02;8.63;;;5.50;;
22201;SDS011;11266;51.522;6.302;2023-04-28T01:23:48;8.82;;;5.65;;
22201;SDS011;11266;51.522;6.302;2023-04-28T01:24:33;7.95;;;5.30;;
22201;SDS011;11266;51.522;6.302;2023-04-28T01:25:19;7.68;;;5.40;;
22201;SDS011;11266;51.522;6.302;2023-04-28T01:26:05;8.70;;;5.80;;
22201;SDS011;11266;51.522;6.302;2023-04-28T01:26:51;7.95;;;5.28;;
22201;SDS011;11266;51.522;6.302;2023-04-28T01:27:37;7.05;;;5.47;;
22201;SDS011;11266;51.522;6.302;2023-04-28T01:28:23;8.10;;;5.38;;
22201;SDS011;11266;51.522;6.302;2023-04-28T01:29:09;8.68;;;5.10;;
22201;SDS011;11266;51.522;6.302;2023-04-28T01:29:54;7.85;;;5.55;;
22201;SDS011;11266;51.522;6.302;2023-04-28T01:30:42;6.75;;;4.75;;
22201;SDS011;11266;51.522;6.302;2023-04-28T01:31:28;7.82;;;4.80;;
22201;SDS011;11266;51.522;6.302;2023-04-28T01:32:15;6.28;;;4.65;;
22201;SDS011;11266;51.522;6.302;2023-04-28T01:33:01;8.35;;;5.07;;
22201;SDS011;11266;51.522;6.302;2023-04-28T01:33:47;8.32;;;4.80;;
22201;SDS011;11266;51.522;6.302;2023-04-28T01:34:33;10.20;;;6.10;;
22201;SDS011;11266;51.522;6.302;2023-04-28T01:35:19;9.13;;;5.85;;
22201;SDS011;11266;51.522;6.302;2023-04-28T01:36:04;16.38;;;6.50;;
22201;SDS011;11266;51.522;6.302;2023-04-28T01:37:13;7.93;;;5.35;;
22201;SDS011;11266;51.522;6.302;2023-04-28T01:37:59;9.57;;;5.53;;
22201;SDS011;11266;51.522;6.302;2023-04-28T01:38:46;6.90;;;4.93;;
22201;SDS011;11266;51.522;6.302;2023-04-28T01:39:31;8.25;;;5.72;;
22201;SDS011;11266;51.522;6.302;2023-04-28T01:40:19;9.55;;;5.88;;
22201;SDS011;11266;51.522;6.302;2023-04-28T01:41:05;8.77;;;6.22;;
22201;SDS011;11266;51.522;6.302;2023-04-28T01:41:50;7.22;;;5.40;;
22201;SDS011;11266;51.522;6.302;2023-04-28T01:42:36;9.57;;;5.82;;
22201;SDS011;11266;51.522;6.302;2023-04-28T01:43:22;8.27;;;5.13;;
22201;SDS011;11266;51.522;6.302;2023-04-28T01:44:08;9.50;;;5.95;;
22201;SDS011;11266;51.522;6.302;2023-04-28T01:44:53;9.43;;;5.72;;
22201;SDS011;11266;51.522;6.302;2023-04-28T01:45:39;10.48;;;6.00;;
22201;SDS011;11266;51.522;6.302;2023-04-28T01:46:25;8.85;;;6.05;;
22201;SDS011;11266;51.522;6.302;2023-04-28T01:47:11;7.95;;;5.80;;
22201;SDS011;11266;51.522;6.302;2023-04-28T01:47:57;9.60;;;6.43;;
22201;SDS011;11266;51.522;6.302;2023-04-28T01:48:43;9.50;;;6.25;;
22201;SDS011;11266;51.522;6.302;2023-04-28T01:49:28;10.95;;;6.43;;
22201;SDS011;11266;51.522;6.302;2023-04-28T01:50:14;8.88;;;6.30;;
22201;SDS011;11266;51.522;6.302;2023-04-28T01:51:00;10.73;;;6.22;;
22201;SDS011;11266;51.522;6.302;2023-04-28T01:51:46;8.77;;;6.32;;
22201;SDS011;11266;51.522;6.302;2023-04-28T01:52:32;12.05;;;6.95;;
22201;SDS011;11266;51.522;6.302;2023-04-28T01:53:18;10.85;;;6.95;;
22201;SDS011;11266;51.522;6.302;2023-04-28T01:54:06;9.40;;;6.70;;
22201;SDS011;11266;51.522;6.302;2023-04-28T01:54:58;8.63;;;6.25;;
22201;SDS011;11266;51.522;6.302;2023-04-28T01:55:43;10.27;;;6.45;;
22201;SDS011;11266;51.522;6.302;2023-04-28T01:56:29;13.85;;;6.43;;
22201;SDS011;11266;51.522;6.302;2023-04-28T01:57:15;10.30;;;6.28;;
22201;SDS011;11266;51.522;6.302;2023-04-28T01:58:01;13.85;;;7.18;;
22201;SDS011;11266;51.522;6.302;2023-04-28T01:58:47;11.50;;;7.68;;
22201;SDS011;11266;51.522;6.302;2023-04-28T01:59:33;11.48;;;6.47;;
22201;SDS011;11266;51.522;6.302;2023-04-28T02:00:19;10.70;;;7.20;;
22201;SDS011;11266;51.522;6.302;2023-04-28T02:01:05;13.82;;;6.68;;
22201;SDS011;11266;51.522;6.302;2023-04-28T02:01:50;9.85;;;6.45;;
22201;SDS011;11266;51.522;6.302;2023-04-28T02:02:36;10.93;;;6.50;;
22201;SDS011;11266;51.522;6.302;2023-04-28T02:03:22;13.52;;;7.05;;
22201;SDS011;11266;51.522;6.302;2023-04-28T02:04:08;10.35;;;6.22;;
22201;SDS011;11266;51.522;6.302;2023-04-28T02:04:54;10.00;;;6.38;;
22201;SDS011;11266;51.522;6.302;2023-04-28T02:05:40;10.75;;;6.43;;
22201;SDS011;11266;51.522;6.302;2023-04-28T02:06:25;9.65;;;6.43;;
22201;SDS011;11266;51.522;6.302;2023-04-28T02:07:12;11.02;;;6.30;;
22201;SDS011;11266;51.522;6.302;2023-04-28T02:07:57;8.23;;;5.85;;
22201;SDS011;11266;51.522;6.302;2023-04-28T02:08:46;10.60;;;6.07;;
22201;SDS011;11266;51.522;6.302;2023-04-28T02:09:32;8.40;;;5.90;;
22201;SDS011;11266;51.522;6.302;2023-04-28T02:10:18;10.43;;;6.68;;
22201;SDS011;11266;51.522;6.302;2023-04-28T02:11:04;11.32;;;6.03;;
22201;SDS011;11266;51.522;6.302;2023-04-28T02:11:50;8.43;;;5.85;;
22201;SDS011;11266;51.522;6.302;2023-04-28T02:12:36;8.18;;;5.88;;
22201;SDS011;11266;51.522;6.302;2023-04-28T02:13:22;12.00;;;5.90;;
22201;SDS011;11266;51.522;6.302;2023-04-28T02:14:08;10.00;;;6.65;;
22201;SDS011;11266;51.522;6.302;2023-04-28T02:14:54;7.55;;;5.72;;
22201;SDS011;11266;51.522;6.302;2023-04-28T02:15:40;8.55;;;5.47;;
22201;SDS011;11266;51.522;6.302;2023-04-28T02:16:26;11.45;;;6.03;;
22201;SDS011;11266;51.522;6.302;2023-04-28T02:17:12;8.35;;;6.20;;
22201;SDS011;11266;51.522;6.302;2023-04-28T02:17:58;10.07;;;6.50;;
22201;SDS011;11266;51.522;6.302;2023-04-28T02:18:44;11.52;;;6.60;;
22201;SDS011;11266;51.522;6.302;2023-04-28T02:19:30;10.90;;;6.57;;
22201;SDS011;11266;51.522;6.302;2023-04-28T02:20:16;10.02;;;7.03;;
22201;SDS011;11266;51.522;6.302;2023-04-28T02:21:08;11.15;;;6.28;;
22201;SDS011;11266;51.522;6.302;2023-04-28T02:21:55;9.55;;;6.43;;
22201;SDS011;11266;51.522;6.302;2023-04-28T02:22:41;10.30;;;6.78;;
22201;SDS011;11266;51.522;6.302;2023-04-28T02:23:27;8.82;;;6.07;;
22201;SDS011;11266;51.522;6.302;2023-04-28T02:24:12;12.30;;;6.47;;
22201;SDS011;11266;51.522;6.302;2023-04-28T02:24:58;10.63;;;6.60;;
22201;SDS011;11266;51.522;6.302;2023-04-28T02:25:44;9.90;;;6.35;;
22201;SDS011;11266;51.522;6.302;2023-04-28T02:26:30;12.85;;;7.25;;
22201;SDS011;11266;51.522;6.302;2023-04-28T02:27:17;8.50;;;6.13;;
22201;SDS011;11266;51.522;6.302;2023-04-28T02:28:03;11.23;;;7.43;;
22201;SDS011;11266;51.522;6.302;2023-04-28T02:28:49;9.93;;;6.18;;
22201;SDS011;11266;51.522;6.302;2023-04-28T02:29:34;8.43;;;6.15;;
22201;SDS011;11266;51.522;6.302;2023-04-28T02:30:20;10.35;;;6.55;;
22201;SDS011;11266;51.522;6.302;2023-04-28T02:31:06;9.27;;;6.32;;
22201;SDS011;11266;51.522;6.302;2023-04-28T02:31:54;10.00;;;6.60;;
22201;SDS011;11266;51.522;6.302;2023-04-28T02:32:39;11.13;;;7.55;;
22201;SDS011;11266;51.522;6.302;2023-04-28T02:33:25;12.68;;;7.00;;
22201;SDS011;11266;51.522;6.302;2023-04-28T02:34:11;9.20;;;6.57;;
22201;SDS011;11266;51.522;6.302;2023-04-28T02:34:58;10.05;;;6.53;;
22201;SDS011;11266;51.522;6.302;2023-04-28T02:35:44;11.18;;;7.13;;
22201;SDS011;11266;51.522;6.302;2023-04-28T02:36:30;9.73;;;6.55;;
22201;SDS011;11266;51.522;6.302;2023-04-28T02:37:17;9.68;;;6.50;;
22201;SDS011;11266;51.522;6.302;2023-04-28T02:38:03;9.23;;;6.10;;
22201;SDS011;11266;51.522;6.302;2023-04-28T02:38:48;10.30;;;6.78;;
22201;SDS011;11266;51.522;6.302;2023-04-28T02:39:34;11.43;;;7.38;;
22201;SDS011;11266;51.522;6.302;2023-04-28T02:40:20;11.32;;;6.35;;
22201;SDS011;11266;51.522;6.302;2023-04-28T02:41:06;9.73;;;6.43;;
22201;SDS011;11266;51.522;6.302;2023-04-28T02:41:53;10.98;;;6.38;;
22201;SDS011;11266;51.522;6.302;2023-04-28T02:42:38;9.30;;;6.70;;
22201;SDS011;11266;51.522;6.302;2023-04-28T02:43:25;10.55;;;6.80;;
22201;SDS011;11266;51.522;6.302;2023-04-28T02:44:11;10.70;;;6.60;;
22201;SDS011;11266;51.522;6.302;2023-04-28T02:44:57;10.07;;;6.65;;
22201;SDS011;11266;51.522;6.302;2023-04-28T02:45:42;8.18;;;5.80;;
22201;SDS011;11266;51.522;6.302;2023-04-28T02:46:28;8.65;;;5.95;;
22201;SDS011;11266;51.522;6.302;2023-04-28T02:47:14;10.40;;;6.53;;
22201;SDS011;11266;51.522;6.302;2023-04-28T02:48:00;9.30;;;6.72;;
22201;SDS011;11266;51.522;6.302;2023-04-28T02:48:47;9.68;;;6.18;;
22201;SDS011;11266;51.522;6.302;2023-04-28T02:49:33;13.07;;;6.75;;
22201;SDS011;11266;51.522;6.302;2023-04-28T02:50:18;11.25;;;6.38;;
22201;SDS011;11266;51.522;6.302;2023-04-28T02:51:04;11.75;;;6.55;;
22201;SDS011;11266;51.522;6.302;2023-04-28T02:51:50;10.25;;;6.75;;
22201;SDS011;11266;51.522;6.302;2023-04-28T02:52:36;10.52;;;6.50;;
22201;SDS011;11266;51.522;6.302;2023-04-28T02:53:22;8.80;;;6.10;;
22201;SDS011;11266;51.522;6.302;2023-04-28T02:54:08;8.77;;;6.07;;
22201;SDS011;11266;51.522;6.302;2023-04-28T02:54:53;9.63;;;6.85;;
22201;SDS011;11266;51.522;6.302;2023-04-28T02:55:41;9.05;;;6.53;;
22201;SDS011;11266;51.522;6.302;2023-04-28T02:56:27;9.68;;;6.20;;
22201;SDS011;11266;51.522;6.302;2023-04-28T02:57:16;9.30;;;5.90;;
22201;SDS011;11266;51.522;6.302;2023-04-28T02:58:02;8.93;;;6.10;;
22201;SDS011;11266;51.522;6.302;2023-04-28T02:58:48;11.48;;;6.82;;
22201;SDS011;11266;51.522;6.302;2023-04-28T02:59:33;9.40;;;6.43;;
22201;SDS011;11266;51.522;6.302;2023-04-28T03:00:19;8.80;;;6.10;;
22201;SDS011;11266;51.522;6.302;2023-04-28T03:01:05;12.55;;;6.80;;
22201;SDS011;11266;51.522;6.302;2023-04-28T03:01:51;8.98;;;6.25;;
22201;SDS011;11266;51.522;6.302;2023-04-28T03:02:37;10.88;;;6.80;;
22201;SDS011;11266;51.522;6.302;2023-04-28T03:03:22;10.20;;;6.63;;
22201;SDS011;11266;51.522;6.302;2023-04-28T03:04:08;9.80;;;6.20;;
22201;SDS011;11266;51.522;6.302;2023-04-28T03:04:54;11.20;;;7.03;;
22201;SDS011;11266;51.522;6.302;2023-04-28T03:05:40;10.20;;;6.75;;
22201;SDS011;11266;51.522;6.302;2023-04-28T03:06:25;12.52;;;6.43;;
22201;SDS011;11266;51.522;6.302;2023-04-28T03:07:12;12.57;;;7.70;;
22201;SDS011;11266;51.522;6.302;2023-04-28T03:07:58;11.27;;;6.50;;
22201;SDS011;11266;51.522;6.302;2023-04-28T03:08:44;11.70;;;7.10;;
22201;SDS011;11266;51.522;6.302;2023-04-28T03:09:30;10.88;;;6.63;;
22201;SDS011;11266;51.522;6.302;2023-04-28T03:10:16;10.00;;;6.40;;
22201;SDS011;11266;51.522;6.302;2023-04-28T03:11:01;11.07;;;7.40;;
22201;SDS011;11266;51.522;6.302;2023-04-28T03:11:47;11.32;;;7.15;;
22201;SDS011;11266;51.522;6.302;2023-04-28T03:12:33;11.00;;;7.03;;
22201;SDS011;11266;51.522;6.302;2023-04-28T03:13:19;11.88;;;7.25;;
22201;SDS011;11266;51.522;6.302;2023-04-28T03:14:05;9.60;;;7.07;;
22201;SDS011;11266;51.522;6.302;2023-04-28T03:14:51;10.27;;;7.22;;
22201;SDS011;11266;51.522;6.302;2023-04-28T03:15:37;10.43;;;7.43;;
22201;SDS011;11266;51.522;6.302;2023-04-28T03:16:23;11.63;;;7.75;;
22201;SDS011;11266;51.522;6.302;2023-04-28T03:17:08;11.30;;;7.45;;
22201;SDS011;11266;51.522;6.302;2023-04-28T03:17:54;10.98;;;7.10;;
22201;SDS011;11266;51.522;6.302;2023-04-28T03:18:40;11.93;;;6.70;;
22201;SDS011;11266;51.522;6.302;2023-04-28T03:19:26;10.30;;;7.07;;
22201;SDS011;11266;51.522;6.302;2023-04-28T03:20:12;11.07;;;7.10;;
22201;SDS011;11266;51.522;6.302;2023-04-28T03:20:58;10.85;;;7.45;;
22201;SDS011;11266;51.522;6.302;2023-04-28T03:21:43;11.75;;;7.53;;
22201;SDS011;11266;51.522;6.302;2023-04-28T03:22:30;11.40;;;7.35;;
22201;SDS011;11266;51.522;6.302;2023-04-28T03:23:16;11.55;;;7.47;;
22201;SDS011;11266;51.522;6.302;2023-04-28T03:24:01;12.63;;;7.35;;
22201;SDS011;11266;51.522;6.302;2023-04-28T03:24:47;13.38;;;7.43;;
22201;SDS011;11266;51.522;6.302;2023-04-28T03:25:33;8.43;;;5.95;;
22201;SDS011;11266;51.522;6.302;2023-04-28T03:26:19;9.65;;;6.72;;
22201;SDS011;11266;51.522;6.302;2023-04-28T03:27:05;10.45;;;6.97;;
22201;SDS011;11266;51.522;6.302;2023-04-28T03:27:50;10.23;;;7.10;;
22201;SDS011;11266;51.522;6.302;2023-04-28T03:28:36;10.18;;;6.90;;
22201;SDS011;11266;51.522;6.302;2023-04-28T03:29:22;9.63;;;6.78;;
22201;SDS011;11266;51.522;6.302;2023-04-28T03:30:09;12.60;;;6.68;;
22201;SDS011;11266;51.522;6.302;2023-04-28T03:30:55;14.25;;;7.13;;
22201;SDS011;11266;51.522;6.302;2023-04-28T03:31:41;9.77;;;6.68;;
22201;SDS011;11266;51.522;6.302;2023-04-28T03:32:27;11.50;;;7.20;;
22201;SDS011;11266;51.522;6.302;2023-04-28T03:33:13;14.15;;;7.50;;
22201;SDS011;11266;51.522;6.302;2023-04-28T03:33:59;9.80;;;7.20;;
22201;SDS011;11266;51.522;6.302;2023-04-28T03:34:44;11.02;;;7.10;;
22201;SDS011;11266;51.522;6.302;2023-04-28T03:35:31;11.25;;;7.32;;
22201;SDS011;11266;51.522;6.302;2023-04-28T03:36:16;9.85;;;6.85;;
22201;SDS011;11266;51.522;6.302;2023-04-28T03:37:02;10.75;;;6.95;;
22201;SDS011;11266;51.522;6.302;2023-04-28T03:37:48;9.90;;;6.47;;
22201;SDS011;11266;51.522;6.302;2023-04-28T03:38:34;10.10;;;7.00;;
22201;SDS011;11266;51.522;6.302;2023-04-28T03:39:20;9.77;;;6.90;;
22201;SDS011;11266;51.522;6.302;2023-04-28T03:40:06;11.65;;;7.50;;
22201;SDS011;11266;51.522;6.302;2023-04-28T03:40:52;11.77;;;6.65;;
22201;SDS011;11266;51.522;6.302;2023-04-28T03:41:38;10.02;;;7.18;;
22201;SDS011;11266;51.522;6.302;2023-04-28T03:42:23;10.98;;;7.32;;
22201;SDS011;11266;51.522;6.302;2023-04-28T03:43:12;9.32;;;6.30;;
22201;SDS011;11266;51.522;6.302;2023-04-28T03:43:58;10.65;;;6.82;;
22201;SDS011;11266;51.522;6.302;2023-04-28T03:44:44;10.75;;;7.05;;
22201;SDS011;11266;51.522;6.302;2023-04-28T03:45:29;12.88;;;6.95;;
22201;SDS011;11266;51.522;6.302;2023-04-28T03:46:15;9.48;;;6.60;;
22201;SDS011;11266;51.522;6.302;2023-04-28T03:47:01;10.18;;;6.60;;
22201;SDS011;11266;51.522;6.302;2023-04-28T03:47:47;9.68;;;6.47;;
22201;SDS011;11266;51.522;6.302;2023-04-28T03:48:33;10.23;;;5.97;;
22201;SDS011;11266;51.522;6.302;2023-04-28T03:49:18;8.90;;;6.18;;
22201;SDS011;11266;51.522;6.302;2023-04-28T03:50:04;10.05;;;6.35;;
22201;SDS011;11266;51.522;6.302;2023-04-28T03:50:51;12.02;;;6.80;;
22201;SDS011;11266;51.522;6.302;2023-04-28T03:51:37;8.85;;;5.88;;
22201;SDS011;11266;51.522;6.302;2023-04-28T03:52:22;9.63;;;6.13;;
22201;SDS011;11266;51.522;6.302;2023-04-28T03:53:08;9.07;;;6.53;;
22201;SDS011;11266;51.522;6.302;2023-04-28T03:53:54;10.57;;;6.18;;
22201;SDS011;11266;51.522;6.302;2023-04-28T03:54:40;8.68;;;6.13;;
22201;SDS011;11266;51.522;6.302;2023-04-28T03:55:26;7.55;;;5.65;;
22201;SDS011;11266;51.522;6.302;2023-04-28T03:56:12;11.18;;;6.25;;
22201;SDS011;11266;51.522;6.302;2023-04-28T03:56:58;9.45;;;6.10;;
22201;SDS011;11266;51.522;6.302;2023-04-28T03:57:44;9.10;;;6.25;;
22201;SDS011;11266;51.522;6.302;2023-04-28T03:58:30;9.65;;;6.32;;
22201;SDS011;11266;51.522;6.302;2023-04-28T03:59:16;9.98;;;5.95;;
22201;SDS011;11266;51.522;6.302;2023-04-28T04:00:02;8.73;;;6.28;;
22201;SDS011;11266;51.522;6.302;2023-04-28T04:00:49;9.35;;;6.25;;
22201;SDS011;11266;51.522;6.302;2023-04-28T04:01:35;9.48;;;6.60;;
22201;SDS011;11266;51.522;6.302;2023-04-28T04:02:20;12.65;;;6.35;;
22201;SDS011;11266;51.522;6.302;2023-04-28T04:03:06;8.35;;;5.57;;
22201;SDS011;11266;51.522;6.302;2023-04-28T04:03:52;8.60;;;5.95;;
22201;SDS011;11266;51.522;6.302;2023-04-28T04:04:38;8.27;;;6.10;;
22201;SDS011;11266;51.522;6.302;2023-04-28T04:05:23;7.68;;;5.40;;
22201;SDS011;11266;51.522;6.302;2023-04-28T04:06:09;10.38;;;6.30;;
22201;SDS011;11266;51.522;6.302;2023-04-28T04:06:55;14.10;;;6.40;;
22201;SDS011;11266;51.522;6.302;2023-04-28T04:07:41;10.88;;;6.10;;
22201;SDS011;11266;51.522;6.302;2023-04-28T04:08:27;11.05;;;6.10;;
22201;SDS011;11266;51.522;6.302;2023-04-28T04:09:13;10.02;;;6.20;;
22201;SDS011;11266;51.522;6.302;2023-04-28T04:09:59;10.02;;;6.30;;
22201;SDS011;11266;51.522;6.302;2023-04-28T04:10:45;9.32;;;5.45;;
22201;SDS011;11266;51.522;6.302;2023-04-28T04:11:31;8.23;;;5.65;;
22201;SDS011;11266;51.522;6.302;2023-04-28T04:12:16;7.65;;;5.32;;
22201;SDS011;11266;51.522;6.302;2023-04-28T04:13:02;8.07;;;5.60;;
22201;SDS011;11266;51.522;6.302;2023-04-28T04:13:48;7.68;;;5.55;;
22201;SDS011;11266;51.522;6.302;2023-04-28T04:14:34;8.95;;;6.03;;
22201;SDS011;11266;51.522;6.302;2023-04-28T04:15:20;7.60;;;5.28;;
22201;SDS011;11266;51.522;6.302;2023-04-28T04:16:05;11.07;;;5.95;;
22201;SDS011;11266;51.522;6.302;2023-04-28T04:16:51;8.63;;;5.90;;
22201;SDS011;11266;51.522;6.302;2023-04-28T04:17:39;10.75;;;5.53;;
22201;SDS011;11266;51.522;6.302;2023-04-28T04:18:25;9.05;;;5.88;;
22201;SDS011;11266;51.522;6.302;2023-04-28T04:19:11;9.25;;;6.03;;
22201;SDS011;11266;51.522;6.302;2023-04-28T04:19:57;9.07;;;5.93;;
22201;SDS011;11266;51.522;6.302;2023-04-28T04:20:43;9.52;;;5.80;;
22201;SDS011;11266;51.522;6.302;2023-04-28T04:21:29;12.93;;;6.35;;
22201;SDS011;11266;51.522;6.302;2023-04-28T04:22:15;11.70;;;6.13;;
22201;SDS011;11266;51.522;6.302;2023-04-28T04:23:01;9.57;;;6.28;;
22201;SDS011;11266;51.522;6.302;2023-04-28T04:23:47;7.70;;;5.88;;
22201;SDS011;11266;51.522;6.302;2023-04-28T04:24:33;7.55;;;5.88;;
22201;SDS011;11266;51.522;6.302;2023-04-28T04:25:19;10.13;;;5.72;;
22201;SDS011;11266;51.522;6.302;2023-04-28T04:26:05;8.43;;;5.95;;
22201;SDS011;11266;51.522;6.302;2023-04-28T04:26:50;9.20;;;6.00;;
22201;SDS011;11266;51.522;6.302;2023-04-28T04:27:36;8.05;;;5.65;;
22201;SDS011;11266;51.522;6.302;2023-04-28T04:28:22;8.73;;;5.22;;
22201;SDS011;11266;51.522;6.302;2023-04-28T04:29:08;9.95;;;5.60;;
22201;SDS011;11266;51.522;6.302;2023-04-28T04:29:54;9.48;;;6.18;;
22201;SDS011;11266;51.522;6.302;2023-04-28T04:30:39;11.88;;;6.00;;
22201;SDS011;11266;51.522;6.302;2023-04-28T04:31:25;9.95;;;6.47;;
22201;SDS011;11266;51.522;6.302;2023-04-28T04:32:11;11.23;;;5.80;;
22201;SDS011;11266;51.522;6.302;2023-04-28T04:32:57;9.70;;;5.70;;
22201;SDS011;11266;51.522;6.302;2023-04-28T04:33:42;7.03;;;5.35;;
22201;SDS011;11266;51.522;6.302;2023-04-28T04:34:28;8.50;;;5.75;;
22201;SDS011;11266;51.522;6.302;2023-04-28T04:35:14;8.25;;;5.72;;
22201;SDS011;11266;51.522;6.302;2023-04-28T04:36:00;8.15;;;5.75;;
22201;SDS011;11266;51.522;6.302;2023-04-28T04:36:46;10.90;;;6.13;;